This is the latest recevied weather packets stored in our database for station/object DH6PF-10. If no packets are shown the sender has not sent any weather packets the latest 10 day(s).
| Time | Temp. | Humidity | Pressure | Rain* | Wind** | Luminosity | Snow |
|---|---|---|---|---|---|---|---|
| 1777724438 | 25° C | 42% | 1009 hPa | 0 mm | - | - | - |
| 1777723838 | 25° C | 40% | 1009 hPa | 0 mm | - | - | - |
| 1777723238 | 26.11° C | 39% | 1010 hPa | 0 mm | - | - | - |
| 1777722638 | 25° C | 42% | 1010 hPa | 0 mm | - | - | - |
| 1777722038 | 25° C | 42% | 1010 hPa | 0 mm | - | - | - |
| 1777721438 | 25° C | 40% | 1010 hPa | 0 mm | - | - | - |
| 1777720838 | 24.44° C | 40% | 1010 hPa | 0 mm | - | - | - |
| 1777720238 | 24.44° C | 41% | 1010 hPa | 0 mm | - | - | - |
| 1777719638 | 25° C | 39% | 1010 hPa | 0 mm | - | - | - |
| 1777719038 | 24.44° C | 39% | 1011 hPa | 0 mm | - | - | - |
| 1777718438 | 23.33° C | 43% | 1011 hPa | 0 mm | - | - | - |
| 1777717838 | 25° C | 39% | 1011 hPa | 0 mm | - | - | - |
| 1777717238 | 24.44° C | 41% | 1011 hPa | 0 mm | - | - | - |
| 1777716638 | 23.33° C | 40% | 1011 hPa | 0 mm | - | - | - |
| 1777716038 | 23.33° C | 39% | 1011 hPa | 0 mm | - | - | - |
| 1777715438 | 22.78° C | 40% | 1011 hPa | 0 mm | - | - | - |
| 1777714838 | 21.11° C | 42% | 1011 hPa | 0 mm | - | - | - |
| 1777714238 | 21.11° C | 43% | 1011 hPa | 0 mm | - | - | - |
| 1777713638 | 21.11° C | 41% | 1011 hPa | 0 mm | - | - | - |
| 1777713038 | 21.67° C | 41% | 1011 hPa | 0 mm | - | - | - |
| 1777712438 | 21.11° C | 41% | 1012 hPa | 0 mm | - | - | - |
| 1777711838 | 21.11° C | 41% | 1011 hPa | 0 mm | - | - | - |
| 1777711238 | 20.56° C | 42% | 1011 hPa | 0 mm | - | - | - |
| 1777710638 | 21.11° C | 42% | 1011 hPa | 0 mm | - | - | - |
| 1777710038 | 20° C | 45% | 1011 hPa | 0 mm | - | - | - |
* Rain latest hour (hover to see other rain measurements)
** Current wind speed in m/s (hover to see current wind gust speed)